createdAt,value
2018-05-29T00:01:29.803Z,24.47
2018-05-29T00:03:58.155Z,25.20
2018-05-29T00:06:26.373Z,23.33
2018-05-29T00:08:54.631Z,21.73
2018-05-29T00:11:22.983Z,23.30
2018-05-29T00:13:51.187Z,21.30
2018-05-29T00:16:19.424Z,17.87
2018-05-29T00:18:47.684Z,23.03
2018-05-29T00:21:15.960Z,21.97
2018-05-29T00:23:44.286Z,18.60
2018-05-29T00:26:12.522Z,18.27
2018-05-29T00:28:40.804Z,26.20
2018-05-29T00:31:09.082Z,24.63
2018-05-29T00:33:37.325Z,22.47
2018-05-29T00:36:05.585Z,20.43
2018-05-29T00:38:33.866Z,21.80
2018-05-29T00:41:02.114Z,22.53
2018-05-29T00:43:30.464Z,26.27
2018-05-29T00:45:58.707Z,26.53
2018-05-29T00:48:26.946Z,26.17
2018-05-29T00:50:55.213Z,22.17
2018-05-29T00:53:23.568Z,22.23
2018-05-29T00:55:51.972Z,24.53
2018-05-29T00:58:20.245Z,26.10
2018-05-29T01:00:48.507Z,25.30
2018-05-29T01:03:16.901Z,28.37
2018-05-29T01:05:45.154Z,25.47
2018-05-29T01:08:13.449Z,27.70
2018-05-29T01:10:41.829Z,22.27
2018-05-29T01:13:10.176Z,20.63
2018-05-29T01:15:38.489Z,25.10
2018-05-29T01:18:06.837Z,24.37
2018-05-29T01:20:35.345Z,24.17
2018-05-29T01:23:03.590Z,26.63
2018-05-29T01:25:31.894Z,25.90
2018-05-29T01:28:00.271Z,26.27
2018-05-29T01:30:28.547Z,29.23
2018-05-29T01:32:56.804Z,26.80
2018-05-29T01:35:25.201Z,25.37
2018-05-29T01:37:53.581Z,21.53
2018-05-29T01:40:21.823Z,23.50
2018-05-29T01:42:50.129Z,21.20
2018-05-29T01:45:18.379Z,20.83
2018-05-29T01:47:46.756Z,23.47
2018-05-29T01:50:15.036Z,24.47
2018-05-29T01:52:43.441Z,23.57
2018-05-29T01:55:11.816Z,24.03
2018-05-29T01:57:40.166Z,21.60
2018-05-29T02:00:08.444Z,21.23
2018-05-29T02:02:36.745Z,26.17
2018-05-29T02:05:05.054Z,20.87
2018-05-29T02:07:33.326Z,21.77
2018-05-29T02:10:01.654Z,23.37
2018-05-29T02:12:30.055Z,24.53
2018-05-29T02:14:58.334Z,22.40
2018-05-29T02:17:26.709Z,21.00
2018-05-29T02:19:54.965Z,21.40
2018-05-29T02:22:23.464Z,25.23
2018-05-29T02:24:52.021Z,21.97
2018-05-29T02:27:20.322Z,21.63
2018-05-29T02:29:48.676Z,21.23
2018-05-29T02:32:17.081Z,24.67
2018-05-29T02:34:45.457Z,19.80
2018-05-29T02:37:13.834Z,22.10
2018-05-29T02:39:42.071Z,21.90
2018-05-29T02:42:10.459Z,18.63
2018-05-29T02:44:38.974Z,22.73
2018-05-29T02:47:07.347Z,16.97
2018-05-29T02:49:35.933Z,17.80
2018-05-29T02:52:04.311Z,16.60
2018-05-29T02:54:32.684Z,15.60
2018-05-29T02:57:00.967Z,16.90
2018-05-29T02:59:29.347Z,17.60
2018-05-29T03:01:57.691Z,18.00
2018-05-29T03:04:26.100Z,19.40
2018-05-29T03:06:54.447Z,17.53
2018-05-29T03:09:22.720Z,20.93
2018-05-29T03:11:51.027Z,13.30
2018-05-29T03:14:19.299Z,15.17
2018-05-29T03:16:47.665Z,15.77
2018-05-29T03:19:15.963Z,17.27
2018-05-29T03:21:44.309Z,17.90
2018-05-29T03:24:12.531Z,18.10
2018-05-29T03:26:40.879Z,18.20
2018-05-29T03:29:09.265Z,20.17
2018-05-29T03:31:37.536Z,16.57
2018-05-29T03:34:06.021Z,18.33
2018-05-29T03:36:34.300Z,16.27
2018-05-29T03:39:02.775Z,16.53
2018-05-29T03:41:31.059Z,15.17
2018-05-29T03:43:59.311Z,13.77
2018-05-29T03:46:27.577Z,18.83
2018-05-29T03:48:55.878Z,17.20
2018-05-29T03:51:24.140Z,14.47
2018-05-29T03:53:52.509Z,13.60
2018-05-29T03:56:20.888Z,13.53
2018-05-29T03:58:49.164Z,15.07
2018-05-29T04:01:17.379Z,11.97
2018-05-29T04:03:45.720Z,13.90
2018-05-29T04:06:14.320Z,12.57
2018-05-29T04:08:43.516Z,15.37
2018-05-29T04:11:11.877Z,14.27
2018-05-29T04:13:40.275Z,15.00
2018-05-29T04:16:08.654Z,18.13
2018-05-29T04:18:36.904Z,14.87
2018-05-29T04:21:05.209Z,16.60
2018-05-29T04:23:33.535Z,15.93
2018-05-29T04:26:01.861Z,16.37
2018-05-29T04:28:30.136Z,21.13
2018-05-29T04:30:58.513Z,19.57
2018-05-29T04:33:26.785Z,26.13
2018-05-29T04:35:55.484Z,26.48
2018-05-29T04:38:23.856Z,30.00
2018-05-29T04:40:52.203Z,27.33
2018-05-29T04:43:20.608Z,25.67
2018-05-29T04:45:48.960Z,32.60
2018-05-29T04:48:17.236Z,27.97
2018-05-29T04:50:45.539Z,25.67
2018-05-29T04:53:13.832Z,24.47
2018-05-29T04:55:42.181Z,27.90
2018-05-29T04:58:10.570Z,33.90
2018-05-29T05:00:38.919Z,32.40
2018-05-29T05:03:07.225Z,52.43
2018-05-29T05:05:35.616Z,73.57
2018-05-29T05:08:03.951Z,104.63
2018-05-29T05:10:32.355Z,97.20
2018-05-29T05:13:00.707Z,98.67
2018-05-29T05:15:28.996Z,86.83
2018-05-29T05:17:57.290Z,63.87
2018-05-29T05:20:25.543Z,53.27
2018-05-29T05:22:53.804Z,44.73
2018-05-29T05:25:22.033Z,31.20
2018-05-29T05:27:50.391Z,29.77
2018-05-29T05:30:18.766Z,36.80
2018-05-29T05:33:10.382Z,34.17
2018-05-29T05:35:46.777Z,31.30
2018-05-29T05:38:15.237Z,31.60
2018-05-29T05:40:43.592Z,27.80
2018-05-29T05:43:12.099Z,30.13
2018-05-29T05:45:40.318Z,28.13
2018-05-29T05:48:08.648Z,25.83
2018-05-29T05:50:37.027Z,25.77
2018-05-29T05:53:05.402Z,30.73
2018-05-29T05:55:33.886Z,24.07
2018-05-29T05:58:02.180Z,24.07
2018-05-29T06:00:30.641Z,26.53
2018-05-29T06:02:58.914Z,23.00
2018-05-29T06:05:27.518Z,22.90
2018-05-29T06:07:55.877Z,20.07
2018-05-29T06:10:24.441Z,24.63
2018-05-29T06:12:52.835Z,20.17
2018-05-29T06:15:21.359Z,24.50
2018-05-29T06:17:49.692Z,26.67
2018-05-29T06:20:17.987Z,20.13
2018-05-29T06:22:46.244Z,21.97
2018-05-29T06:25:14.832Z,19.07
2018-05-29T06:27:43.195Z,18.50
2018-05-29T06:30:11.574Z,27.83
2018-05-29T06:32:40.011Z,20.27
2018-05-29T06:35:08.342Z,24.57
2018-05-29T06:37:36.723Z,25.53
2018-05-29T06:40:05.051Z,28.90
2018-05-29T06:42:33.355Z,22.83
2018-05-29T06:45:01.589Z,21.37
2018-05-29T06:47:29.925Z,22.20
2018-05-29T06:49:58.403Z,22.13
2018-05-29T06:52:26.759Z,25.73
2018-05-29T06:54:55.037Z,21.43
2018-05-29T06:57:23.336Z,21.00
2018-05-29T06:59:51.716Z,19.17
2018-05-29T07:02:20.094Z,19.87
2018-05-29T07:04:48.366Z,17.27
2018-05-29T07:07:16.719Z,17.83
2018-05-29T07:09:45.228Z,15.63
2018-05-29T07:12:13.675Z,16.50
2018-05-29T07:14:42.087Z,14.23
2018-05-29T07:17:10.371Z,18.03
2018-05-29T07:19:38.624Z,15.17
2018-05-29T07:22:06.909Z,13.50
2018-05-29T07:24:35.294Z,11.83
2018-05-29T07:27:03.875Z,40.60
2018-05-29T07:29:32.149Z,14.90
2018-05-29T07:32:00.524Z,16.40
2018-05-29T07:34:28.780Z,13.20
2018-05-29T07:36:57.079Z,18.97
2018-05-29T07:39:25.490Z,13.17
2018-05-29T07:41:53.735Z,15.10
2018-05-29T07:44:22.112Z,13.43
2018-05-29T07:46:50.360Z,11.30
2018-05-29T07:49:18.771Z,12.73
2018-05-29T07:51:47.115Z,10.57
2018-05-29T07:54:15.533Z,12.93
2018-05-29T07:56:43.978Z,13.37
2018-05-29T07:59:12.241Z,9.63
2018-05-29T08:01:40.627Z,9.67
2018-05-29T08:04:09.139Z,12.07
2018-05-29T08:06:37.619Z,12.10
2018-05-29T08:09:06.094Z,12.33
2018-05-29T08:11:34.371Z,11.63
2018-05-29T08:14:02.725Z,15.97
2018-05-29T08:16:31.129Z,13.00
2018-05-29T08:18:59.517Z,14.80
2018-05-29T08:21:27.755Z,10.83
2018-05-29T08:23:56.403Z,11.90
2018-05-29T08:26:24.744Z,11.40
2018-05-29T08:28:53.097Z,11.53
2018-05-29T08:31:21.372Z,18.30
2018-05-29T08:33:49.647Z,15.77
2018-05-29T08:36:17.946Z,16.00
2018-05-29T08:38:46.200Z,12.13
2018-05-29T08:41:14.442Z,11.83
2018-05-29T08:43:42.744Z,15.40
2018-05-29T08:46:11.155Z,12.70
2018-05-29T08:48:39.427Z,11.20
2018-05-29T08:51:07.883Z,11.37
2018-05-29T08:53:36.161Z,12.27
2018-05-29T08:56:04.419Z,13.73
2018-05-29T08:58:32.735Z,11.20
2018-05-29T09:01:01.117Z,10.30
2018-05-29T09:03:29.388Z,12.03
2018-05-29T09:05:57.630Z,13.83
2018-05-29T09:08:25.917Z,11.97
2018-05-29T09:10:54.321Z,8.83
2018-05-29T09:13:22.596Z,16.83
2018-05-29T09:15:51.080Z,8.10
2018-05-29T09:18:19.458Z,13.77
2018-05-29T09:20:47.816Z,9.17
2018-05-29T09:23:16.214Z,14.67
2018-05-29T09:25:44.639Z,13.73
2018-05-29T09:28:12.969Z,11.37
2018-05-29T09:30:41.193Z,11.10
2018-05-29T09:33:09.478Z,12.57
2018-05-29T09:35:37.764Z,11.20
2018-05-29T09:38:06.072Z,11.83
2018-05-29T09:40:34.447Z,11.53
2018-05-29T09:43:02.800Z,9.53
2018-05-29T09:45:31.308Z,13.37
2018-05-29T09:47:59.661Z,12.83
2018-05-29T09:50:27.963Z,10.27
2018-05-29T09:52:56.229Z,9.73
2018-05-29T09:55:24.718Z,12.43
2018-05-29T09:57:53.199Z,11.50
2018-05-29T10:00:27.516Z,10.13
2018-05-29T10:02:55.891Z,10.73
2018-05-29T10:05:24.166Z,9.77
2018-05-29T10:07:52.549Z,10.27
2018-05-29T10:10:20.791Z,12.53
2018-05-29T10:12:49.085Z,12.07
2018-05-29T10:15:17.478Z,15.50
2018-05-29T10:17:45.863Z,11.60
2018-05-29T10:20:14.199Z,11.30
2018-05-29T10:22:42.484Z,13.03
2018-05-29T10:25:10.755Z,16.30
2018-05-29T10:27:39.040Z,11.70
2018-05-29T10:30:07.337Z,9.97
2018-05-29T10:32:35.711Z,9.90
2018-05-29T10:35:04.092Z,12.77
2018-05-29T10:37:32.654Z,11.27
2018-05-29T10:40:00.953Z,13.80
2018-05-29T10:42:29.432Z,11.77
2018-05-29T10:44:57.826Z,11.87
2018-05-29T10:47:26.023Z,13.37
2018-05-29T10:49:54.437Z,14.17
2018-05-29T10:52:22.761Z,10.53
2018-05-29T10:54:51.091Z,11.83
2018-05-29T10:57:19.435Z,11.77
2018-05-29T10:59:47.768Z,15.27
2018-05-29T11:02:16.144Z,13.13
2018-05-29T11:04:44.420Z,13.27
2018-05-29T11:07:12.681Z,12.83
2018-05-29T11:09:41.184Z,17.27
2018-05-29T11:12:09.661Z,13.13
2018-05-29T11:14:38.042Z,13.23
2018-05-29T11:17:06.280Z,13.83
2018-05-29T11:19:34.620Z,14.07
2018-05-29T11:22:02.967Z,16.77
2018-05-29T11:24:31.315Z,15.83
2018-05-29T11:26:59.691Z,13.73
2018-05-29T11:29:27.929Z,14.30
2018-05-29T11:31:56.328Z,14.37
2018-05-29T11:34:24.547Z,14.37
2018-05-29T11:36:53.133Z,11.73
2018-05-29T11:39:21.525Z,13.63
2018-05-29T11:41:49.775Z,15.83
2018-05-29T11:44:18.062Z,13.50
2018-05-29T11:46:46.454Z,12.60
2018-05-29T11:49:14.672Z,10.90
2018-05-29T11:51:42.951Z,13.40
2018-05-29T11:54:11.171Z,15.20
2018-05-29T11:56:39.401Z,13.27
2018-05-29T11:59:07.684Z,12.87
2018-05-29T12:01:35.993Z,15.47
2018-05-29T12:04:04.273Z,12.07
2018-05-29T12:06:32.481Z,14.47
2018-05-29T12:09:00.796Z,12.40
2018-05-29T12:11:29.030Z,12.37
2018-05-29T12:13:57.479Z,14.07
2018-05-29T12:16:25.854Z,15.30
2018-05-29T12:18:54.095Z,15.17
2018-05-29T12:21:22.379Z,10.63
2018-05-29T12:23:50.715Z,9.50
2018-05-29T12:26:19.062Z,14.70
2018-05-29T12:28:47.424Z,16.17
2018-05-29T12:31:15.812Z,9.63
2018-05-29T12:33:44.095Z,13.13
2018-05-29T12:36:12.299Z,11.67
2018-05-29T12:38:40.663Z,13.47
2018-05-29T12:41:09.022Z,10.13
2018-05-29T12:43:37.403Z,13.93
2018-05-29T12:46:05.625Z,12.13
2018-05-29T12:48:33.915Z,12.77
2018-05-29T12:51:02.326Z,14.80
2018-05-29T12:53:30.715Z,14.57
2018-05-29T12:55:59.085Z,12.13
2018-05-29T12:58:27.443Z,10.93
2018-05-29T13:00:55.739Z,14.10
2018-05-29T13:03:23.959Z,16.67
2018-05-29T13:05:52.289Z,17.93
2018-05-29T13:08:20.666Z,13.97
2018-05-29T13:10:48.873Z,15.80
2018-05-29T13:13:17.323Z,15.30
2018-05-29T13:15:45.594Z,16.63
2018-05-29T13:18:13.858Z,20.90
2018-05-29T13:20:42.126Z,17.33
2018-05-29T13:23:10.527Z,11.30
2018-05-29T13:25:38.979Z,13.93
2018-05-29T13:28:07.282Z,11.17
2018-05-29T13:30:35.559Z,12.70
2018-05-29T13:33:03.937Z,11.57
2018-05-29T13:35:32.312Z,13.30
2018-05-29T13:38:00.793Z,12.03
2018-05-29T13:40:29.174Z,15.87
2018-05-29T13:42:57.394Z,12.93
2018-05-29T13:45:25.696Z,13.10
2018-05-29T13:47:54.015Z,9.50
2018-05-29T13:50:22.274Z,10.70
2018-05-29T13:52:50.513Z,12.00
2018-05-29T13:55:18.803Z,9.77
2018-05-29T13:57:47.105Z,11.73
2018-05-29T14:00:15.451Z,11.90
2018-05-29T14:02:43.860Z,10.53
2018-05-29T14:05:12.133Z,10.10
2018-05-29T14:07:40.617Z,10.27
2018-05-29T14:10:08.991Z,12.50
2018-05-29T14:12:37.263Z,15.27
2018-05-29T14:15:05.527Z,11.33
2018-05-29T14:17:33.900Z,9.30
2018-05-29T14:20:03.220Z,13.00
2018-05-29T14:22:31.603Z,21.60
2018-05-29T14:24:59.863Z,14.20
2018-05-29T14:27:28.092Z,12.53
2018-05-29T14:29:57.256Z,11.00
2018-05-29T14:32:25.599Z,11.93
2018-05-29T14:34:53.862Z,12.03
2018-05-29T14:37:22.285Z,13.27
2018-05-29T14:39:50.659Z,11.70
2018-05-29T14:42:19.015Z,10.20
2018-05-29T14:44:47.311Z,13.87
2018-05-29T14:47:15.666Z,11.40
2018-05-29T14:49:44.061Z,14.13
2018-05-29T14:52:12.523Z,13.77
2018-05-29T14:54:40.800Z,11.13
2018-05-29T14:57:09.068Z,11.87
2018-05-29T14:59:37.286Z,11.73
2018-05-29T15:02:05.624Z,9.80
2018-05-29T15:04:34.032Z,12.97
2018-05-29T15:07:02.379Z,11.67
2018-05-29T15:09:30.681Z,12.93
2018-05-29T15:11:59.165Z,10.63
2018-05-29T15:14:27.419Z,8.77
2018-05-29T15:16:55.719Z,10.20
2018-05-29T15:19:23.929Z,10.93
2018-05-29T15:21:52.186Z,11.47
2018-05-29T15:24:20.517Z,14.50
2018-05-29T15:26:48.792Z,10.57
2018-05-29T15:29:17.031Z,13.53
2018-05-29T15:31:45.370Z,12.20
2018-05-29T15:34:13.726Z,12.87
2018-05-29T15:36:42.031Z,9.13
2018-05-29T15:39:10.513Z,8.27
2018-05-29T15:41:38.759Z,7.70
2018-05-29T15:44:07.158Z,8.13
2018-05-29T15:46:35.508Z,9.87
2018-05-29T15:49:03.722Z,8.40
2018-05-29T15:51:31.981Z,11.03
2018-05-29T15:54:00.275Z,10.87
2018-05-29T15:56:28.636Z,13.00
2018-05-29T15:58:56.917Z,12.33
2018-05-29T16:01:25.290Z,10.90
2018-05-29T16:03:53.566Z,11.27
2018-05-29T16:06:21.919Z,14.97
2018-05-29T16:08:50.220Z,12.03
2018-05-29T16:11:18.605Z,13.30
2018-05-29T16:13:46.855Z,14.63
2018-05-29T16:16:15.149Z,11.63
2018-05-29T16:18:43.630Z,14.73
2018-05-29T16:21:12.211Z,13.67
2018-05-29T16:23:40.567Z,12.57
2018-05-29T16:26:08.843Z,11.77
2018-05-29T16:28:37.151Z,12.37
2018-05-29T16:31:05.403Z,15.37
2018-05-29T16:33:33.801Z,13.50
2018-05-29T16:36:02.178Z,15.57
2018-05-29T16:38:30.658Z,18.13
2018-05-29T16:40:59.036Z,12.87
2018-05-29T16:43:27.411Z,14.40
2018-05-29T16:45:55.789Z,13.07
2018-05-29T16:48:24.170Z,14.77
2018-05-29T16:50:52.553Z,12.40
2018-05-29T16:53:20.774Z,21.80
2018-05-29T16:55:48.980Z,13.57
2018-05-29T16:58:17.269Z,14.70
2018-05-29T17:00:45.544Z,16.43
2018-05-29T17:03:13.943Z,17.67
2018-05-29T17:05:42.278Z,18.57
2018-05-29T17:08:10.484Z,17.23
2018-05-29T17:10:38.959Z,20.43
2018-05-29T17:13:07.332Z,18.60
2018-05-29T17:15:35.608Z,16.60
2018-05-29T17:18:03.886Z,18.37
2018-05-29T17:20:32.267Z,17.63
2018-05-29T17:23:00.615Z,16.87
2018-05-29T17:25:28.995Z,17.63
2018-05-29T17:27:57.503Z,16.57
2018-05-29T17:30:25.856Z,16.10
2018-05-29T17:32:54.256Z,18.90
2018-05-29T17:35:22.538Z,17.87
2018-05-29T17:37:50.780Z,19.23
2018-05-29T17:40:19.024Z,27.20
2018-05-29T17:42:47.335Z,20.77
2018-05-29T17:45:15.636Z,21.07
2018-05-29T17:47:43.875Z,21.57
2018-05-29T17:50:12.291Z,20.27
2018-05-29T17:52:40.522Z,21.87
2018-05-29T17:55:08.949Z,22.10
2018-05-29T17:57:37.195Z,21.00
2018-05-29T18:00:06.112Z,22.10
2018-05-29T18:02:34.694Z,22.33
2018-05-29T18:05:03.067Z,25.23
2018-05-29T18:07:31.560Z,21.70
2018-05-29T18:09:59.927Z,22.50
2018-05-29T18:12:28.306Z,22.27
2018-05-29T18:14:56.685Z,21.43
2018-05-29T18:17:25.040Z,26.00
2018-05-29T18:19:53.442Z,21.67
2018-05-29T18:22:21.931Z,20.47
2018-05-29T18:24:50.520Z,21.30
2018-05-29T18:27:18.755Z,21.53
2018-05-29T18:29:46.979Z,20.90
2018-05-29T18:32:15.191Z,22.23
2018-05-29T18:34:43.816Z,23.07
2018-05-29T18:37:12.155Z,23.83
2018-05-29T18:39:40.429Z,26.07
2018-05-29T18:42:08.636Z,24.10
2018-05-29T18:44:37.068Z,20.43
2018-05-29T18:47:05.397Z,20.73
2018-05-29T18:49:33.885Z,21.30
2018-05-29T18:52:02.227Z,21.33
2018-05-29T18:54:30.618Z,22.10
2018-05-29T18:56:58.982Z,20.23
2018-05-29T18:59:27.286Z,20.27
2018-05-29T19:01:55.561Z,21.67
2018-05-29T19:04:23.832Z,23.10
2018-05-29T19:06:52.125Z,25.03
2018-05-29T19:09:20.491Z,27.57
2018-05-29T19:11:48.873Z,26.47
2018-05-29T19:14:17.349Z,26.17
2018-05-29T19:16:45.932Z,26.87
2018-05-29T19:19:14.621Z,27.30
2018-05-29T19:21:43.302Z,27.20
2018-05-29T19:24:12.301Z,28.23
2018-05-29T19:26:40.979Z,29.10
2018-05-29T19:29:09.954Z,30.87
2018-05-29T19:31:39.071Z,25.80
2018-05-29T19:34:08.445Z,26.07
2018-05-29T19:36:38.286Z,27.50
2018-05-29T19:39:08.406Z,29.63
2018-05-29T19:41:38.079Z,27.30
2018-05-29T19:44:07.808Z,30.77
2018-05-29T19:46:37.633Z,28.93
2018-05-29T19:49:07.752Z,30.37
2018-05-29T19:51:37.721Z,32.43
2018-05-29T19:54:07.487Z,28.70
2018-05-29T19:56:36.952Z,29.93
2018-05-29T19:59:06.997Z,29.47
2018-05-29T20:01:37.005Z,29.30
2018-05-29T20:04:06.685Z,30.73
2018-05-29T20:06:36.570Z,29.77
2018-05-29T20:09:06.375Z,30.92
2018-05-29T20:11:36.463Z,27.87
2018-05-29T20:14:05.866Z,27.57
2018-05-29T20:16:35.069Z,30.20
2018-05-29T20:19:04.082Z,29.80
2018-05-29T20:21:32.743Z,31.47
2018-05-29T20:24:01.121Z,30.83
2018-05-29T20:26:29.498Z,32.57
2018-05-29T20:28:57.781Z,31.43
2018-05-29T20:31:26.205Z,31.83
2018-05-29T20:33:54.504Z,33.23
2018-05-29T20:36:22.788Z,39.40
2018-05-29T20:38:51.098Z,37.87
2018-05-29T20:41:19.445Z,38.50
2018-05-29T20:43:47.771Z,33.70
2018-05-29T20:46:16.234Z,33.83
2018-05-29T20:48:44.526Z,33.30
2018-05-29T20:51:13.181Z,32.03
2018-05-29T20:53:41.456Z,32.13
2018-05-29T20:56:09.831Z,35.20
2018-05-29T20:58:38.087Z,33.73
2018-05-29T21:01:06.413Z,35.67
2018-05-29T21:03:34.766Z,35.20
2018-05-29T21:06:03.137Z,38.80
2018-05-29T21:08:31.415Z,39.47
2018-05-29T21:10:59.769Z,37.70
2018-05-29T21:13:28.073Z,38.33
2018-05-29T21:15:56.450Z,38.47
2018-05-29T21:18:24.723Z,37.90
2018-05-29T21:20:53.209Z,37.07
2018-05-29T21:23:21.687Z,37.77
2018-05-29T21:25:50.039Z,40.20
2018-05-29T21:28:18.338Z,40.23
2018-05-29T21:30:46.558Z,38.60
2018-05-29T21:33:14.795Z,41.50
2018-05-29T21:35:43.064Z,41.03
2018-05-29T21:38:11.295Z,36.23
2018-05-29T21:40:39.615Z,41.27
2018-05-29T21:43:08.098Z,36.47
2018-05-29T21:45:36.351Z,36.07
2018-05-29T21:48:04.628Z,31.10
2018-05-29T21:50:32.878Z,30.43
2018-05-29T21:53:01.307Z,31.17
2018-05-29T21:55:29.681Z,31.73
2018-05-29T21:57:58.058Z,32.77
2018-05-29T22:00:26.292Z,32.93
2018-05-29T22:02:54.539Z,33.83
2018-05-29T22:05:22.855Z,34.20
2018-05-29T22:07:51.162Z,37.87
2018-05-29T22:10:19.515Z,35.27
2018-05-29T22:12:47.820Z,36.27
2018-05-29T22:15:16.198Z,36.03
2018-05-29T22:17:44.543Z,36.00
2018-05-29T22:20:12.950Z,35.43
2018-05-29T22:22:41.184Z,34.93
2018-05-29T22:25:09.603Z,36.67
2018-05-29T22:27:37.980Z,33.07
2018-05-29T22:30:06.231Z,33.10
2018-05-29T22:32:34.636Z,36.50
2018-05-29T22:35:02.859Z,41.20
2018-05-29T22:37:31.185Z,37.33
2018-05-29T22:39:59.468Z,36.47
2018-05-29T22:42:27.739Z,34.83
2018-05-29T22:44:55.967Z,37.87
2018-05-29T22:47:24.228Z,34.47
2018-05-29T22:49:52.567Z,35.00
2018-05-29T22:52:20.840Z,34.87
2018-05-29T22:54:49.196Z,33.97
2018-05-29T22:57:17.647Z,35.87
2018-05-29T22:59:45.907Z,34.07
2018-05-29T23:02:14.257Z,35.33
2018-05-29T23:04:42.640Z,39.13
2018-05-29T23:07:10.994Z,38.33
2018-05-29T23:09:39.261Z,35.43
2018-05-29T23:12:07.538Z,44.53
2018-05-29T23:14:35.931Z,36.13
2018-05-29T23:17:04.204Z,35.90
2018-05-29T23:19:32.575Z,38.10
2018-05-29T23:22:00.965Z,35.73
2018-05-29T23:24:29.325Z,35.53
2018-05-29T23:26:57.622Z,36.13
2018-05-29T23:29:26.103Z,39.33
2018-05-29T23:31:54.790Z,37.57
2018-05-29T23:34:23.058Z,37.13
2018-05-29T23:36:51.347Z,36.27
2018-05-29T23:39:19.722Z,37.03
2018-05-29T23:41:48.009Z,38.90
2018-05-29T23:44:16.296Z,35.77
2018-05-29T23:46:44.655Z,35.23
2018-05-29T23:49:12.946Z,34.70
2018-05-29T23:51:41.210Z,33.43
2018-05-29T23:54:09.494Z,39.77
2018-05-29T23:56:37.757Z,57.97
2018-05-29T23:59:06.131Z,37.33
